sensor_id;sensor_type;location;lat;lon;timestamp;P1;durP1;ratioP1;P2;durP2;ratioP2
21905;SDS011;11117;48.644;9.006;2024-01-06T00:01:29;19.57;;;10.23;;
21905;SDS011;11117;48.644;9.006;2024-01-06T00:03:55;21.07;;;11.80;;
21905;SDS011;11117;48.644;9.006;2024-01-06T00:06:20;17.40;;;10.17;;
21905;SDS011;11117;48.644;9.006;2024-01-06T00:08:46;11.87;;;7.60;;
21905;SDS011;11117;48.644;9.006;2024-01-06T00:11:12;12.50;;;6.97;;
21905;SDS011;11117;48.644;9.006;2024-01-06T00:13:38;11.57;;;6.70;;
21905;SDS011;11117;48.644;9.006;2024-01-06T00:16:03;10.73;;;6.50;;
21905;SDS011;11117;48.644;9.006;2024-01-06T00:18:29;16.47;;;6.93;;
21905;SDS011;11117;48.644;9.006;2024-01-06T00:20:55;11.67;;;6.17;;
21905;SDS011;11117;48.644;9.006;2024-01-06T00:23:20;11.67;;;6.70;;
21905;SDS011;11117;48.644;9.006;2024-01-06T00:25:46;15.53;;;7.30;;
21905;SDS011;11117;48.644;9.006;2024-01-06T00:28:11;14.23;;;6.43;;
21905;SDS011;11117;48.644;9.006;2024-01-06T00:30:38;10.17;;;6.50;;
21905;SDS011;11117;48.644;9.006;2024-01-06T00:33:04;13.13;;;6.37;;
21905;SDS011;11117;48.644;9.006;2024-01-06T00:35:29;13.80;;;7.87;;
21905;SDS011;11117;48.644;9.006;2024-01-06T00:37:55;13.13;;;5.30;;
21905;SDS011;11117;48.644;9.006;2024-01-06T00:40:20;8.77;;;5.53;;
21905;SDS011;11117;48.644;9.006;2024-01-06T00:42:46;12.00;;;5.77;;
21905;SDS011;11117;48.644;9.006;2024-01-06T00:45:11;10.27;;;5.00;;
21905;SDS011;11117;48.644;9.006;2024-01-06T00:47:37;12.30;;;5.23;;
21905;SDS011;11117;48.644;9.006;2024-01-06T00:50:02;11.17;;;4.87;;
21905;SDS011;11117;48.644;9.006;2024-01-06T00:52:28;10.30;;;4.90;;
21905;SDS011;11117;48.644;9.006;2024-01-06T00:54:54;8.33;;;4.70;;
21905;SDS011;11117;48.644;9.006;2024-01-06T00:57:19;12.87;;;5.10;;
21905;SDS011;11117;48.644;9.006;2024-01-06T00:59:45;13.37;;;5.30;;
21905;SDS011;11117;48.644;9.006;2024-01-06T01:02:10;14.63;;;5.33;;
21905;SDS011;11117;48.644;9.006;2024-01-06T01:04:36;12.13;;;5.20;;
21905;SDS011;11117;48.644;9.006;2024-01-06T01:07:01;10.90;;;5.00;;
21905;SDS011;11117;48.644;9.006;2024-01-06T01:09:27;10.87;;;4.90;;
21905;SDS011;11117;48.644;9.006;2024-01-06T01:11:53;8.90;;;4.90;;
21905;SDS011;11117;48.644;9.006;2024-01-06T01:14:18;9.20;;;5.27;;
21905;SDS011;11117;48.644;9.006;2024-01-06T01:16:44;12.80;;;4.63;;
21905;SDS011;11117;48.644;9.006;2024-01-06T01:19:09;15.03;;;6.67;;
21905;SDS011;11117;48.644;9.006;2024-01-06T01:21:35;18.87;;;8.43;;
21905;SDS011;11117;48.644;9.006;2024-01-06T01:24:00;14.90;;;6.93;;
21905;SDS011;11117;48.644;9.006;2024-01-06T01:26:26;15.33;;;6.63;;
21905;SDS011;11117;48.644;9.006;2024-01-06T01:28:51;10.57;;;6.23;;
21905;SDS011;11117;48.644;9.006;2024-01-06T01:31:17;9.07;;;5.30;;
21905;SDS011;11117;48.644;9.006;2024-01-06T01:33:42;10.30;;;6.00;;
21905;SDS011;11117;48.644;9.006;2024-01-06T01:36:08;13.37;;;5.97;;
21905;SDS011;11117;48.644;9.006;2024-01-06T01:38:33;8.57;;;5.23;;
21905;SDS011;11117;48.644;9.006;2024-01-06T01:40:59;9.07;;;4.90;;
21905;SDS011;11117;48.644;9.006;2024-01-06T01:43:24;12.20;;;5.33;;
21905;SDS011;11117;48.644;9.006;2024-01-06T01:45:51;9.33;;;5.20;;
21905;SDS011;11117;48.644;9.006;2024-01-06T01:48:19;13.47;;;5.47;;
21905;SDS011;11117;48.644;9.006;2024-01-06T01:50:46;8.33;;;4.50;;
21905;SDS011;11117;48.644;9.006;2024-01-06T01:53:12;9.50;;;4.40;;
21905;SDS011;11117;48.644;9.006;2024-01-06T01:55:38;8.40;;;4.30;;
21905;SDS011;11117;48.644;9.006;2024-01-06T01:58:05;11.27;;;4.73;;
21905;SDS011;11117;48.644;9.006;2024-01-06T02:00:37;11.70;;;4.20;;
21905;SDS011;11117;48.644;9.006;2024-01-06T02:03:03;11.30;;;5.03;;
21905;SDS011;11117;48.644;9.006;2024-01-06T02:05:30;11.13;;;5.00;;
21905;SDS011;11117;48.644;9.006;2024-01-06T02:07:55;11.37;;;4.60;;
21905;SDS011;11117;48.644;9.006;2024-01-06T02:10:21;9.60;;;4.50;;
21905;SDS011;11117;48.644;9.006;2024-01-06T02:12:47;11.37;;;4.17;;
21905;SDS011;11117;48.644;9.006;2024-01-06T02:15:13;9.30;;;4.50;;
21905;SDS011;11117;48.644;9.006;2024-01-06T02:17:39;9.13;;;4.20;;
21905;SDS011;11117;48.644;9.006;2024-01-06T02:20:05;11.57;;;4.10;;
21905;SDS011;11117;48.644;9.006;2024-01-06T02:22:35;7.63;;;4.30;;
21905;SDS011;11117;48.644;9.006;2024-01-06T02:25:02;8.93;;;3.90;;
21905;SDS011;11117;48.644;9.006;2024-01-06T02:27:30;10.50;;;4.10;;
21905;SDS011;11117;48.644;9.006;2024-01-06T02:29:55;6.13;;;3.47;;
21905;SDS011;11117;48.644;9.006;2024-01-06T02:32:21;5.67;;;3.33;;
21905;SDS011;11117;48.644;9.006;2024-01-06T02:34:47;8.00;;;4.10;;
21905;SDS011;11117;48.644;9.006;2024-01-06T02:37:12;6.97;;;3.73;;
21905;SDS011;11117;48.644;9.006;2024-01-06T02:39:38;4.93;;;3.47;;
21905;SDS011;11117;48.644;9.006;2024-01-06T02:42:03;7.47;;;3.47;;
21905;SDS011;11117;48.644;9.006;2024-01-06T02:44:29;9.90;;;3.20;;
21905;SDS011;11117;48.644;9.006;2024-01-06T02:46:55;8.37;;;3.30;;
21905;SDS011;11117;48.644;9.006;2024-01-06T02:49:20;8.20;;;2.90;;
21905;SDS011;11117;48.644;9.006;2024-01-06T02:51:46;6.20;;;3.40;;
21905;SDS011;11117;48.644;9.006;2024-01-06T02:54:11;8.70;;;3.60;;
21905;SDS011;11117;48.644;9.006;2024-01-06T02:56:37;7.13;;;3.40;;
21905;SDS011;11117;48.644;9.006;2024-01-06T02:59:02;7.17;;;4.13;;
21905;SDS011;11117;48.644;9.006;2024-01-06T03:01:28;7.40;;;3.47;;
21905;SDS011;11117;48.644;9.006;2024-01-06T03:03:53;10.73;;;4.20;;
21905;SDS011;11117;48.644;9.006;2024-01-06T03:06:19;8.30;;;3.63;;
21905;SDS011;11117;48.644;9.006;2024-01-06T03:08:44;7.17;;;3.40;;
21905;SDS011;11117;48.644;9.006;2024-01-06T03:11:10;7.87;;;3.63;;
21905;SDS011;11117;48.644;9.006;2024-01-06T03:13:35;10.30;;;4.40;;
21905;SDS011;11117;48.644;9.006;2024-01-06T03:16:03;8.57;;;4.40;;
21905;SDS011;11117;48.644;9.006;2024-01-06T03:18:29;5.93;;;3.43;;
21905;SDS011;11117;48.644;9.006;2024-01-06T03:20:54;8.93;;;3.47;;
21905;SDS011;11117;48.644;9.006;2024-01-06T03:23:20;8.90;;;3.53;;
21905;SDS011;11117;48.644;9.006;2024-01-06T03:25:45;7.17;;;3.53;;
21905;SDS011;11117;48.644;9.006;2024-01-06T03:28:11;8.53;;;3.50;;
21905;SDS011;11117;48.644;9.006;2024-01-06T03:30:40;9.17;;;3.37;;
21905;SDS011;11117;48.644;9.006;2024-01-06T03:33:06;6.20;;;3.13;;
21905;SDS011;11117;48.644;9.006;2024-01-06T03:35:37;8.00;;;3.67;;
21905;SDS011;11117;48.644;9.006;2024-01-06T03:38:03;8.00;;;3.43;;
21905;SDS011;11117;48.644;9.006;2024-01-06T03:40:28;7.73;;;3.50;;
21905;SDS011;11117;48.644;9.006;2024-01-06T03:42:54;8.17;;;3.70;;
21905;SDS011;11117;48.644;9.006;2024-01-06T03:45:19;6.90;;;3.77;;
21905;SDS011;11117;48.644;9.006;2024-01-06T03:47:45;10.33;;;3.90;;
21905;SDS011;11117;48.644;9.006;2024-01-06T03:50:11;6.13;;;4.17;;
21905;SDS011;11117;48.644;9.006;2024-01-06T03:52:37;9.43;;;3.90;;
21905;SDS011;11117;48.644;9.006;2024-01-06T03:55:03;10.10;;;3.70;;
21905;SDS011;11117;48.644;9.006;2024-01-06T03:57:29;7.93;;;4.10;;
21905;SDS011;11117;48.644;9.006;2024-01-06T03:59:54;10.83;;;4.10;;
21905;SDS011;11117;48.644;9.006;2024-01-06T04:02:20;9.70;;;4.63;;
21905;SDS011;11117;48.644;9.006;2024-01-06T04:04:45;8.33;;;4.50;;
21905;SDS011;11117;48.644;9.006;2024-01-06T04:07:11;9.30;;;4.70;;
21905;SDS011;11117;48.644;9.006;2024-01-06T04:09:36;11.47;;;4.50;;
21905;SDS011;11117;48.644;9.006;2024-01-06T04:12:02;8.30;;;4.40;;
21905;SDS011;11117;48.644;9.006;2024-01-06T04:14:28;11.70;;;5.40;;
21905;SDS011;11117;48.644;9.006;2024-01-06T04:16:53;13.87;;;6.70;;
21905;SDS011;11117;48.644;9.006;2024-01-06T04:19:19;10.77;;;5.50;;
21905;SDS011;11117;48.644;9.006;2024-01-06T04:21:44;12.13;;;5.90;;
21905;SDS011;11117;48.644;9.006;2024-01-06T04:24:10;9.30;;;4.93;;
21905;SDS011;11117;48.644;9.006;2024-01-06T04:26:35;6.93;;;4.90;;
21905;SDS011;11117;48.644;9.006;2024-01-06T04:29:01;8.27;;;4.83;;
21905;SDS011;11117;48.644;9.006;2024-01-06T04:31:26;14.13;;;8.57;;
21905;SDS011;11117;48.644;9.006;2024-01-06T04:33:52;20.07;;;12.67;;
21905;SDS011;11117;48.644;9.006;2024-01-06T04:36:17;10.80;;;5.87;;
21905;SDS011;11117;48.644;9.006;2024-01-06T04:38:43;9.33;;;4.60;;
21905;SDS011;11117;48.644;9.006;2024-01-06T04:41:08;8.77;;;4.70;;
21905;SDS011;11117;48.644;9.006;2024-01-06T04:43:34;9.80;;;4.40;;
21905;SDS011;11117;48.644;9.006;2024-01-06T04:46:00;11.57;;;6.90;;
21905;SDS011;11117;48.644;9.006;2024-01-06T04:48:25;16.57;;;10.03;;
21905;SDS011;11117;48.644;9.006;2024-01-06T04:50:51;12.00;;;5.17;;
21905;SDS011;11117;48.644;9.006;2024-01-06T04:53:16;11.90;;;5.70;;
21905;SDS011;11117;48.644;9.006;2024-01-06T04:55:42;10.80;;;6.40;;
21905;SDS011;11117;48.644;9.006;2024-01-06T04:58:07;11.63;;;5.57;;
21905;SDS011;11117;48.644;9.006;2024-01-06T05:00:37;12.63;;;8.10;;
21905;SDS011;11117;48.644;9.006;2024-01-06T05:03:03;17.10;;;9.37;;
21905;SDS011;11117;48.644;9.006;2024-01-06T05:05:29;13.27;;;6.83;;
21905;SDS011;11117;48.644;9.006;2024-01-06T05:07:54;14.63;;;8.60;;
21905;SDS011;11117;48.644;9.006;2024-01-06T05:10:20;16.07;;;10.63;;
21905;SDS011;11117;48.644;9.006;2024-01-06T05:12:45;18.80;;;9.70;;
21905;SDS011;11117;48.644;9.006;2024-01-06T05:15:11;15.67;;;9.03;;
21905;SDS011;11117;48.644;9.006;2024-01-06T05:17:37;14.23;;;10.37;;
21905;SDS011;11117;48.644;9.006;2024-01-06T05:20:03;10.33;;;6.50;;
21905;SDS011;11117;48.644;9.006;2024-01-06T05:22:29;10.97;;;4.33;;
21905;SDS011;11117;48.644;9.006;2024-01-06T05:24:54;10.17;;;3.37;;
21905;SDS011;11117;48.644;9.006;2024-01-06T05:27:20;8.67;;;3.43;;
21905;SDS011;11117;48.644;9.006;2024-01-06T05:29:45;8.23;;;3.30;;
21905;SDS011;11117;48.644;9.006;2024-01-06T05:32:11;10.67;;;2.83;;
21905;SDS011;11117;48.644;9.006;2024-01-06T05:34:36;7.83;;;2.83;;
21905;SDS011;11117;48.644;9.006;2024-01-06T05:37:02;7.13;;;2.63;;
21905;SDS011;11117;48.644;9.006;2024-01-06T05:39:28;9.93;;;2.90;;
21905;SDS011;11117;48.644;9.006;2024-01-06T05:41:53;7.70;;;2.57;;
21905;SDS011;11117;48.644;9.006;2024-01-06T05:44:19;5.87;;;2.80;;
21905;SDS011;11117;48.644;9.006;2024-01-06T05:46:44;9.73;;;3.10;;
21905;SDS011;11117;48.644;9.006;2024-01-06T05:49:10;7.17;;;3.07;;
21905;SDS011;11117;48.644;9.006;2024-01-06T05:51:35;7.40;;;3.17;;
21905;SDS011;11117;48.644;9.006;2024-01-06T05:54:01;11.53;;;2.87;;
21905;SDS011;11117;48.644;9.006;2024-01-06T05:56:26;5.40;;;2.43;;
21905;SDS011;11117;48.644;9.006;2024-01-06T05:58:53;8.53;;;2.07;;
21905;SDS011;11117;48.644;9.006;2024-01-06T06:01:19;6.70;;;2.70;;
21905;SDS011;11117;48.644;9.006;2024-01-06T06:03:48;4.70;;;2.00;;
21905;SDS011;11117;48.644;9.006;2024-01-06T06:06:13;7.10;;;2.10;;
21905;SDS011;11117;48.644;9.006;2024-01-06T06:08:42;6.90;;;2.27;;
21905;SDS011;11117;48.644;9.006;2024-01-06T06:11:09;8.33;;;2.13;;
21905;SDS011;11117;48.644;9.006;2024-01-06T06:13:34;7.90;;;2.30;;
21905;SDS011;11117;48.644;9.006;2024-01-06T06:16:00;7.43;;;4.00;;
21905;SDS011;11117;48.644;9.006;2024-01-06T06:18:25;10.37;;;3.90;;
21905;SDS011;11117;48.644;9.006;2024-01-06T06:20:51;6.53;;;4.00;;
21905;SDS011;11117;48.644;9.006;2024-01-06T06:23:16;17.17;;;6.90;;
21905;SDS011;11117;48.644;9.006;2024-01-06T06:25:42;9.33;;;4.13;;
21905;SDS011;11117;48.644;9.006;2024-01-06T06:28:07;5.37;;;2.83;;
21905;SDS011;11117;48.644;9.006;2024-01-06T06:30:37;5.43;;;2.27;;
21905;SDS011;11117;48.644;9.006;2024-01-06T06:33:03;9.07;;;2.90;;
21905;SDS011;11117;48.644;9.006;2024-01-06T06:35:29;9.07;;;2.77;;
21905;SDS011;11117;48.644;9.006;2024-01-06T06:37:54;7.20;;;2.33;;
21905;SDS011;11117;48.644;9.006;2024-01-06T06:40:20;6.00;;;2.40;;
21905;SDS011;11117;48.644;9.006;2024-01-06T06:42:46;7.30;;;2.73;;
21905;SDS011;11117;48.644;9.006;2024-01-06T06:45:11;8.53;;;2.30;;
21905;SDS011;11117;48.644;9.006;2024-01-06T06:47:37;5.47;;;2.07;;
21905;SDS011;11117;48.644;9.006;2024-01-06T06:50:02;6.70;;;2.10;;
21905;SDS011;11117;48.644;9.006;2024-01-06T06:52:28;3.97;;;1.77;;
21905;SDS011;11117;48.644;9.006;2024-01-06T06:54:54;4.13;;;2.40;;
21905;SDS011;11117;48.644;9.006;2024-01-06T06:57:19;5.63;;;2.13;;
21905;SDS011;11117;48.644;9.006;2024-01-06T06:59:45;8.80;;;2.60;;
21905;SDS011;11117;48.644;9.006;2024-01-06T07:02:10;6.17;;;2.57;;
21905;SDS011;11117;48.644;9.006;2024-01-06T07:04:36;8.40;;;2.97;;
21905;SDS011;11117;48.644;9.006;2024-01-06T07:07:02;6.27;;;3.03;;
21905;SDS011;11117;48.644;9.006;2024-01-06T07:09:27;9.53;;;3.10;;
21905;SDS011;11117;48.644;9.006;2024-01-06T07:11:53;6.37;;;2.70;;
21905;SDS011;11117;48.644;9.006;2024-01-06T07:14:18;10.93;;;3.53;;
21905;SDS011;11117;48.644;9.006;2024-01-06T07:16:44;6.97;;;3.50;;
21905;SDS011;11117;48.644;9.006;2024-01-06T07:19:09;7.17;;;3.13;;
21905;SDS011;11117;48.644;9.006;2024-01-06T07:21:35;6.77;;;2.83;;
21905;SDS011;11117;48.644;9.006;2024-01-06T07:24:00;9.13;;;3.53;;
21905;SDS011;11117;48.644;9.006;2024-01-06T07:26:26;7.87;;;2.50;;
21905;SDS011;11117;48.644;9.006;2024-01-06T07:28:52;5.37;;;2.20;;
21905;SDS011;11117;48.644;9.006;2024-01-06T07:31:17;7.60;;;2.57;;
21905;SDS011;11117;48.644;9.006;2024-01-06T07:33:43;7.17;;;2.87;;
21905;SDS011;11117;48.644;9.006;2024-01-06T07:36:08;9.63;;;3.30;;
21905;SDS011;11117;48.644;9.006;2024-01-06T07:38:34;8.03;;;4.07;;
21905;SDS011;11117;48.644;9.006;2024-01-06T07:40:59;8.13;;;2.80;;
21905;SDS011;11117;48.644;9.006;2024-01-06T07:43:25;9.50;;;3.07;;
21905;SDS011;11117;48.644;9.006;2024-01-06T07:45:51;6.60;;;2.80;;
21905;SDS011;11117;48.644;9.006;2024-01-06T07:48:16;11.63;;;3.73;;
21905;SDS011;11117;48.644;9.006;2024-01-06T07:50:42;10.67;;;2.80;;
21905;SDS011;11117;48.644;9.006;2024-01-06T07:53:07;10.03;;;3.07;;
21905;SDS011;11117;48.644;9.006;2024-01-06T07:55:37;12.20;;;4.33;;
21905;SDS011;11117;48.644;9.006;2024-01-06T07:58:03;6.73;;;3.93;;
21905;SDS011;11117;48.644;9.006;2024-01-06T08:00:28;9.43;;;4.57;;
21905;SDS011;11117;48.644;9.006;2024-01-06T08:02:54;11.33;;;4.50;;
21905;SDS011;11117;48.644;9.006;2024-01-06T08:05:20;18.93;;;7.63;;
21905;SDS011;11117;48.644;9.006;2024-01-06T08:07:45;15.30;;;9.10;;
21905;SDS011;11117;48.644;9.006;2024-01-06T08:10:11;7.53;;;4.37;;
21905;SDS011;11117;48.644;9.006;2024-01-06T08:12:36;8.17;;;3.53;;
21905;SDS011;11117;48.644;9.006;2024-01-06T08:15:02;7.80;;;2.90;;
21905;SDS011;11117;48.644;9.006;2024-01-06T08:17:28;5.87;;;3.07;;
21905;SDS011;11117;48.644;9.006;2024-01-06T08:19:53;6.73;;;3.80;;
21905;SDS011;11117;48.644;9.006;2024-01-06T08:22:19;6.17;;;3.47;;
21905;SDS011;11117;48.644;9.006;2024-01-06T08:24:44;7.03;;;3.70;;
21905;SDS011;11117;48.644;9.006;2024-01-06T08:27:10;7.63;;;3.57;;
21905;SDS011;11117;48.644;9.006;2024-01-06T08:29:36;8.47;;;3.10;;
21905;SDS011;11117;48.644;9.006;2024-01-06T08:32:01;5.40;;;3.50;;
21905;SDS011;11117;48.644;9.006;2024-01-06T08:34:27;6.57;;;2.67;;
21905;SDS011;11117;48.644;9.006;2024-01-06T08:36:52;3.67;;;2.30;;
21905;SDS011;11117;48.644;9.006;2024-01-06T08:39:18;2.97;;;2.17;;
21905;SDS011;11117;48.644;9.006;2024-01-06T08:41:43;4.43;;;2.43;;
21905;SDS011;11117;48.644;9.006;2024-01-06T08:44:09;6.83;;;2.30;;
21905;SDS011;11117;48.644;9.006;2024-01-06T08:46:34;3.67;;;2.23;;
21905;SDS011;11117;48.644;9.006;2024-01-06T08:49:00;4.30;;;2.50;;
21905;SDS011;11117;48.644;9.006;2024-01-06T08:51:25;6.57;;;2.63;;
21905;SDS011;11117;48.644;9.006;2024-01-06T08:53:51;4.70;;;2.57;;
21905;SDS011;11117;48.644;9.006;2024-01-06T08:56:17;5.10;;;2.47;;
21905;SDS011;11117;48.644;9.006;2024-01-06T08:58:42;5.17;;;2.60;;
21905;SDS011;11117;48.644;9.006;2024-01-06T09:01:08;8.80;;;2.93;;
21905;SDS011;11117;48.644;9.006;2024-01-06T09:03:34;4.33;;;2.90;;
21905;SDS011;11117;48.644;9.006;2024-01-06T09:05:59;7.10;;;3.20;;
21905;SDS011;11117;48.644;9.006;2024-01-06T09:08:25;6.70;;;3.60;;
21905;SDS011;11117;48.644;9.006;2024-01-06T09:10:50;4.10;;;3.47;;
21905;SDS011;11117;48.644;9.006;2024-01-06T09:13:16;3.73;;;3.17;;
21905;SDS011;11117;48.644;9.006;2024-01-06T09:15:42;5.60;;;3.50;;
21905;SDS011;11117;48.644;9.006;2024-01-06T09:18:08;5.10;;;3.13;;
21905;SDS011;11117;48.644;9.006;2024-01-06T09:20:37;4.23;;;2.77;;
21905;SDS011;11117;48.644;9.006;2024-01-06T09:23:03;8.60;;;2.90;;
21905;SDS011;11117;48.644;9.006;2024-01-06T09:25:29;4.23;;;2.30;;
21905;SDS011;11117;48.644;9.006;2024-01-06T09:27:54;2.90;;;1.83;;
21905;SDS011;11117;48.644;9.006;2024-01-06T09:30:20;4.53;;;2.17;;
21905;SDS011;11117;48.644;9.006;2024-01-06T09:32:46;4.67;;;2.13;;
21905;SDS011;11117;48.644;9.006;2024-01-06T09:35:11;9.20;;;3.63;;
21905;SDS011;11117;48.644;9.006;2024-01-06T09:37:37;4.80;;;3.23;;
21905;SDS011;11117;48.644;9.006;2024-01-06T09:40:02;4.50;;;3.20;;
21905;SDS011;11117;48.644;9.006;2024-01-06T09:42:28;8.80;;;3.30;;
21905;SDS011;11117;48.644;9.006;2024-01-06T09:44:54;4.00;;;2.37;;
21905;SDS011;11117;48.644;9.006;2024-01-06T09:47:19;9.73;;;4.50;;
21905;SDS011;11117;48.644;9.006;2024-01-06T09:49:50;16.40;;;6.97;;
21905;SDS011;11117;48.644;9.006;2024-01-06T09:52:20;92.63;;;7.50;;
21905;SDS011;11117;48.644;9.006;2024-01-06T09:54:53;5.50;;;2.37;;
21905;SDS011;11117;48.644;9.006;2024-01-06T09:57:20;2.57;;;2.00;;
21905;SDS011;11117;48.644;9.006;2024-01-06T09:59:45;4.13;;;2.17;;
21905;SDS011;11117;48.644;9.006;2024-01-06T10:02:12;3.13;;;1.73;;
21905;SDS011;11117;48.644;9.006;2024-01-06T10:04:40;2.63;;;1.90;;
21905;SDS011;11117;48.644;9.006;2024-01-06T10:07:06;4.93;;;2.10;;
21905;SDS011;11117;48.644;9.006;2024-01-06T10:09:31;2.83;;;2.33;;
21905;SDS011;11117;48.644;9.006;2024-01-06T10:11:57;2.53;;;1.90;;
21905;SDS011;11117;48.644;9.006;2024-01-06T10:14:23;4.60;;;2.13;;
21905;SDS011;11117;48.644;9.006;2024-01-06T10:16:49;2.50;;;2.17;;
21905;SDS011;11117;48.644;9.006;2024-01-06T10:19:17;3.43;;;2.17;;
21905;SDS011;11117;48.644;9.006;2024-01-06T10:21:43;2.73;;;2.20;;
21905;SDS011;11117;48.644;9.006;2024-01-06T10:24:09;2.37;;;1.77;;
21905;SDS011;11117;48.644;9.006;2024-01-06T10:26:35;2.13;;;1.80;;
21905;SDS011;11117;48.644;9.006;2024-01-06T10:29:01;1.83;;;1.00;;
21905;SDS011;11117;48.644;9.006;2024-01-06T10:31:26;1.70;;;1.30;;
21905;SDS011;11117;48.644;9.006;2024-01-06T10:33:52;2.13;;;1.93;;
21905;SDS011;11117;48.644;9.006;2024-01-06T10:36:18;2.10;;;1.20;;
21905;SDS011;11117;48.644;9.006;2024-01-06T10:38:44;3.60;;;1.50;;
21905;SDS011;11117;48.644;9.006;2024-01-06T10:41:10;2.30;;;1.03;;
21905;SDS011;11117;48.644;9.006;2024-01-06T10:43:37;5.23;;;1.10;;
21905;SDS011;11117;48.644;9.006;2024-01-06T10:46:02;3.47;;;1.00;;
21905;SDS011;11117;48.644;9.006;2024-01-06T10:48:29;1.40;;;1.10;;
21905;SDS011;11117;48.644;9.006;2024-01-06T10:50:57;4.97;;;1.20;;
21905;SDS011;11117;48.644;9.006;2024-01-06T10:53:24;1.27;;;0.97;;
21905;SDS011;11117;48.644;9.006;2024-01-06T10:55:51;3.30;;;0.87;;
21905;SDS011;11117;48.644;9.006;2024-01-06T10:58:17;1.47;;;0.90;;
21905;SDS011;11117;48.644;9.006;2024-01-06T11:00:44;1.30;;;0.97;;
21905;SDS011;11117;48.644;9.006;2024-01-06T11:03:10;2.03;;;1.00;;
21905;SDS011;11117;48.644;9.006;2024-01-06T11:05:41;4.13;;;2.90;;
21905;SDS011;11117;48.644;9.006;2024-01-06T11:08:07;1.67;;;1.10;;
21905;SDS011;11117;48.644;9.006;2024-01-06T11:10:33;2.90;;;1.70;;
21905;SDS011;11117;48.644;9.006;2024-01-06T11:13:10;1.80;;;1.23;;
21905;SDS011;11117;48.644;9.006;2024-01-06T11:15:45;2.87;;;1.20;;
21905;SDS011;11117;48.644;9.006;2024-01-06T11:23:36;2.47;;;1.10;;
21905;SDS011;11117;48.644;9.006;2024-01-06T11:26:02;3.13;;;0.90;;
21905;SDS011;11117;48.644;9.006;2024-01-06T11:28:27;6.63;;;3.20;;
21905;SDS011;11117;48.644;9.006;2024-01-06T11:31:07;5.20;;;1.93;;
21905;SDS011;11117;48.644;9.006;2024-01-06T11:33:33;1.97;;;1.20;;
21905;SDS011;11117;48.644;9.006;2024-01-06T11:36:07;1.23;;;1.13;;
21905;SDS011;11117;48.644;9.006;2024-01-06T11:38:37;1.17;;;0.97;;
21905;SDS011;11117;48.644;9.006;2024-01-06T11:41:03;1.20;;;1.10;;
21905;SDS011;11117;48.644;9.006;2024-01-06T11:43:28;2.43;;;0.93;;
21905;SDS011;11117;48.644;9.006;2024-01-06T11:45:54;2.37;;;1.00;;
21905;SDS011;11117;48.644;9.006;2024-01-06T11:48:23;3.17;;;1.00;;
21905;SDS011;11117;48.644;9.006;2024-01-06T11:50:51;1.23;;;1.00;;
21905;SDS011;11117;48.644;9.006;2024-01-06T11:53:16;0.80;;;0.80;;
21905;SDS011;11117;48.644;9.006;2024-01-06T11:55:42;1.17;;;1.07;;
21905;SDS011;11117;48.644;9.006;2024-01-06T11:58:07;1.93;;;1.20;;
21905;SDS011;11117;48.644;9.006;2024-01-06T12:00:33;10.47;;;6.03;;
21905;SDS011;11117;48.644;9.006;2024-01-06T12:03:00;1.00;;;0.80;;
21905;SDS011;11117;48.644;9.006;2024-01-06T12:05:26;8.33;;;4.07;;
21905;SDS011;11117;48.644;9.006;2024-01-06T12:07:55;1.17;;;0.90;;
21905;SDS011;11117;48.644;9.006;2024-01-06T12:10:22;3.17;;;0.90;;
21905;SDS011;11117;48.644;9.006;2024-01-06T12:12:54;1.63;;;0.70;;
21905;SDS011;11117;48.644;9.006;2024-01-06T12:15:31;0.80;;;0.60;;
21905;SDS011;11117;48.644;9.006;2024-01-06T12:17:57;1.07;;;0.77;;
21905;SDS011;11117;48.644;9.006;2024-01-06T12:20:23;0.60;;;0.60;;
21905;SDS011;11117;48.644;9.006;2024-01-06T12:22:54;1.03;;;0.80;;
21905;SDS011;11117;48.644;9.006;2024-01-06T12:25:23;0.57;;;0.57;;
21905;SDS011;11117;48.644;9.006;2024-01-06T12:27:50;1.57;;;0.83;;
21905;SDS011;11117;48.644;9.006;2024-01-06T12:30:18;1.37;;;0.97;;
21905;SDS011;11117;48.644;9.006;2024-01-06T12:32:45;1.33;;;1.03;;
21905;SDS011;11117;48.644;9.006;2024-01-06T12:35:11;2.00;;;1.80;;
21905;SDS011;11117;48.644;9.006;2024-01-06T12:37:38;0.73;;;0.60;;
21905;SDS011;11117;48.644;9.006;2024-01-06T12:40:04;1.60;;;1.00;;
21905;SDS011;11117;48.644;9.006;2024-01-06T12:42:33;2.50;;;1.00;;
21905;SDS011;11117;48.644;9.006;2024-01-06T12:44:58;0.90;;;0.80;;
21905;SDS011;11117;48.644;9.006;2024-01-06T12:47:24;1.43;;;1.23;;
21905;SDS011;11117;48.644;9.006;2024-01-06T12:49:49;1.00;;;0.90;;
21905;SDS011;11117;48.644;9.006;2024-01-06T12:52:15;0.83;;;0.73;;
21905;SDS011;11117;48.644;9.006;2024-01-06T12:54:40;1.30;;;0.80;;
21905;SDS011;11117;48.644;9.006;2024-01-06T12:57:07;1.60;;;0.97;;
21905;SDS011;11117;48.644;9.006;2024-01-06T12:59:32;0.73;;;0.70;;
21905;SDS011;11117;48.644;9.006;2024-01-06T13:01:58;0.93;;;0.57;;
21905;SDS011;11117;48.644;9.006;2024-01-06T13:04:24;1.03;;;0.80;;
21905;SDS011;11117;48.644;9.006;2024-01-06T13:06:49;1.30;;;0.90;;
21905;SDS011;11117;48.644;9.006;2024-01-06T13:09:15;0.70;;;0.70;;
21905;SDS011;11117;48.644;9.006;2024-01-06T13:11:41;0.90;;;0.80;;
21905;SDS011;11117;48.644;9.006;2024-01-06T13:14:07;0.70;;;0.70;;
21905;SDS011;11117;48.644;9.006;2024-01-06T13:16:33;1.20;;;0.97;;
21905;SDS011;11117;48.644;9.006;2024-01-06T13:18:59;1.60;;;1.17;;
21905;SDS011;11117;48.644;9.006;2024-01-06T13:21:25;2.03;;;1.50;;
21905;SDS011;11117;48.644;9.006;2024-01-06T13:23:51;1.60;;;1.20;;
21905;SDS011;11117;48.644;9.006;2024-01-06T13:26:16;1.53;;;1.10;;
21905;SDS011;11117;48.644;9.006;2024-01-06T13:28:42;7.73;;;4.13;;
21905;SDS011;11117;48.644;9.006;2024-01-06T13:31:07;1.70;;;1.30;;
21905;SDS011;11117;48.644;9.006;2024-01-06T13:33:33;2.03;;;1.43;;
21905;SDS011;11117;48.644;9.006;2024-01-06T13:35:59;2.20;;;1.40;;
21905;SDS011;11117;48.644;9.006;2024-01-06T13:38:24;2.20;;;1.50;;
21905;SDS011;11117;48.644;9.006;2024-01-06T13:40:50;4.37;;;2.80;;
21905;SDS011;11117;48.644;9.006;2024-01-06T13:43:15;14.00;;;5.00;;
21905;SDS011;11117;48.644;9.006;2024-01-06T13:45:42;6.20;;;3.40;;
21905;SDS011;11117;48.644;9.006;2024-01-06T13:48:08;2.03;;;1.60;;
21905;SDS011;11117;48.644;9.006;2024-01-06T13:50:33;2.23;;;1.23;;
21905;SDS011;11117;48.644;9.006;2024-01-06T13:52:59;1.53;;;1.27;;
21905;SDS011;11117;48.644;9.006;2024-01-06T13:55:24;2.33;;;1.83;;
21905;SDS011;11117;48.644;9.006;2024-01-06T13:57:50;1.30;;;1.20;;
21905;SDS011;11117;48.644;9.006;2024-01-06T14:00:15;1.47;;;1.07;;
21905;SDS011;11117;48.644;9.006;2024-01-06T14:02:41;1.80;;;1.60;;
21905;SDS011;11117;48.644;9.006;2024-01-06T14:05:07;1.67;;;1.37;;
21905;SDS011;11117;48.644;9.006;2024-01-06T14:07:32;1.70;;;1.60;;
21905;SDS011;11117;48.644;9.006;2024-01-06T14:09:58;4.00;;;1.60;;
21905;SDS011;11117;48.644;9.006;2024-01-06T14:12:24;2.70;;;2.00;;
21905;SDS011;11117;48.644;9.006;2024-01-06T14:14:49;2.17;;;1.97;;
21905;SDS011;11117;48.644;9.006;2024-01-06T14:17:15;2.80;;;2.17;;
21905;SDS011;11117;48.644;9.006;2024-01-06T14:19:40;3.00;;;2.43;;
21905;SDS011;11117;48.644;9.006;2024-01-06T14:22:06;3.00;;;2.20;;
21905;SDS011;11117;48.644;9.006;2024-01-06T14:24:31;3.07;;;2.57;;
21905;SDS011;11117;48.644;9.006;2024-01-06T14:26:57;3.33;;;2.83;;
21905;SDS011;11117;48.644;9.006;2024-01-06T14:29:22;3.13;;;2.33;;
21905;SDS011;11117;48.644;9.006;2024-01-06T14:31:48;3.33;;;2.57;;
21905;SDS011;11117;48.644;9.006;2024-01-06T14:34:14;2.90;;;2.57;;
21905;SDS011;11117;48.644;9.006;2024-01-06T14:36:39;4.03;;;2.77;;
21905;SDS011;11117;48.644;9.006;2024-01-06T14:39:05;3.03;;;2.63;;
21905;SDS011;11117;48.644;9.006;2024-01-06T14:41:30;2.63;;;2.10;;